createdAt,value
2018-01-14T00:00:09.605Z,14.97
2018-01-14T00:02:36.071Z,14.70
2018-01-14T00:05:02.356Z,14.23
2018-01-14T00:07:29.544Z,15.40
2018-01-14T00:09:55.852Z,14.47
2018-01-14T00:12:22.062Z,13.40
2018-01-14T00:14:48.311Z,13.70
2018-01-14T00:17:14.530Z,14.70
2018-01-14T00:19:40.737Z,14.80
2018-01-14T00:22:06.989Z,12.50
2018-01-14T00:24:33.265Z,13.00
2018-01-14T00:26:59.470Z,13.00
2018-01-14T00:29:25.684Z,14.70
2018-01-14T00:31:52.625Z,13.07
2018-01-14T00:34:19.206Z,12.63
2018-01-14T00:36:45.428Z,14.90
2018-01-14T00:39:11.717Z,12.30
2018-01-14T00:41:37.953Z,13.47
2018-01-14T00:44:04.155Z,12.53
2018-01-14T00:46:31.298Z,13.57
2018-01-14T00:48:57.557Z,13.80
2018-01-14T00:51:23.796Z,13.80
2018-01-14T00:53:49.988Z,14.00
2018-01-14T00:56:16.319Z,13.50
2018-01-14T00:58:43.500Z,13.97
2018-01-14T01:01:09.718Z,13.37
2018-01-14T01:03:35.968Z,13.77
2018-01-14T01:06:02.187Z,15.57
2018-01-14T01:08:28.399Z,13.90
2018-01-14T01:10:54.596Z,14.17
2018-01-14T01:13:20.838Z,14.43
2018-01-14T01:15:47.023Z,14.47
2018-01-14T01:18:13.294Z,14.80
2018-01-14T01:20:39.488Z,12.87
2018-01-14T01:23:05.722Z,14.47
2018-01-14T01:25:31.882Z,14.63
2018-01-14T01:27:58.183Z,14.47
2018-01-14T01:30:24.340Z,15.53
2018-01-14T01:32:50.697Z,14.63
2018-01-14T01:35:16.921Z,12.90
2018-01-14T01:37:43.091Z,14.97
2018-01-14T01:40:09.295Z,14.63
2018-01-14T01:42:35.685Z,14.50
2018-01-14T01:45:02.664Z,14.53
2018-01-14T01:47:28.858Z,15.87
2018-01-14T01:49:55.907Z,15.57
2018-01-14T01:52:22.072Z,15.53
2018-01-14T01:54:48.276Z,15.60
2018-01-14T01:57:14.446Z,15.40
2018-01-14T01:59:40.634Z,15.43
2018-01-14T02:02:06.821Z,16.47
2018-01-14T02:04:33.118Z,16.97
2018-01-14T02:06:59.307Z,15.77
2018-01-14T02:09:25.491Z,18.57
2018-01-14T02:11:51.881Z,15.80
2018-01-14T02:14:18.050Z,16.80
2018-01-14T02:16:44.232Z,17.73
2018-01-14T02:19:10.427Z,15.67
2018-01-14T02:21:38.145Z,16.20
2018-01-14T02:24:04.340Z,17.27
2018-01-14T02:26:30.517Z,17.67
2018-01-14T02:28:56.787Z,17.30
2018-01-14T02:31:22.995Z,16.80
2018-01-14T02:33:49.205Z,17.07
2018-01-14T02:36:16.199Z,17.83
2018-01-14T02:38:42.515Z,15.73
2018-01-14T02:41:09.465Z,16.93
2018-01-14T02:43:36.451Z,17.30
2018-01-14T02:46:02.941Z,16.33
2018-01-14T02:48:29.143Z,17.73
2018-01-14T02:50:55.349Z,17.50
2018-01-14T02:53:21.577Z,16.27
2018-01-14T02:55:47.761Z,18.40
2018-01-14T02:58:13.989Z,18.03
2018-01-14T03:00:40.915Z,17.93
2018-01-14T03:03:07.256Z,18.77
2018-01-14T03:05:33.463Z,21.27
2018-01-14T03:07:59.658Z,17.90
2018-01-14T03:10:26.905Z,18.87
2018-01-14T03:12:53.219Z,18.60
2018-01-14T03:15:19.496Z,17.53
2018-01-14T03:17:45.932Z,18.27
2018-01-14T03:20:12.136Z,18.10
2018-01-14T03:22:38.357Z,19.03
2018-01-14T03:25:04.572Z,19.40
2018-01-14T03:27:30.763Z,18.37
2018-01-14T03:29:56.971Z,20.17
2018-01-14T03:32:24.075Z,20.77
2018-01-14T03:34:50.309Z,20.67
2018-01-14T03:37:16.482Z,19.80
2018-01-14T03:39:42.719Z,19.90
2018-01-14T03:42:08.891Z,20.07
2018-01-14T03:44:35.115Z,20.20
2018-01-14T03:47:01.304Z,19.90
2018-01-14T03:49:27.535Z,19.87
2018-01-14T03:51:53.705Z,19.47
2018-01-14T03:54:20.246Z,21.63
2018-01-14T03:56:46.469Z,19.50
2018-01-14T03:59:12.848Z,20.13
2018-01-14T04:01:39.048Z,23.27
2018-01-14T04:04:05.284Z,21.43
2018-01-14T04:06:31.529Z,20.87
2018-01-14T04:08:57.776Z,21.00
2018-01-14T04:11:24.104Z,21.27
2018-01-14T04:13:50.319Z,20.87
2018-01-14T04:16:17.287Z,21.97
2018-01-14T04:18:44.340Z,23.17
2018-01-14T04:21:10.578Z,22.40
2018-01-14T04:23:37.547Z,23.77
2018-01-14T04:26:04.602Z,21.17
2018-01-14T04:28:31.524Z,21.60
2018-01-14T04:30:57.735Z,21.80
2018-01-14T04:33:23.964Z,23.20
2018-01-14T04:35:50.359Z,21.07
2018-01-14T04:38:16.520Z,21.70
2018-01-14T04:40:43.494Z,20.93
2018-01-14T04:43:10.452Z,22.63
2018-01-14T04:45:37.838Z,21.97
2018-01-14T04:48:04.081Z,22.03
2018-01-14T04:50:30.265Z,22.70
2018-01-14T04:52:56.482Z,22.00
2018-01-14T04:55:22.714Z,22.77
2018-01-14T04:57:48.944Z,22.67
2018-01-14T05:00:15.137Z,22.47
2018-01-14T05:02:41.421Z,22.63
2018-01-14T05:05:07.630Z,21.93
2018-01-14T05:07:34.567Z,23.77
2018-01-14T05:10:00.867Z,23.27
2018-01-14T05:12:27.089Z,22.87
2018-01-14T05:14:53.237Z,20.93
2018-01-14T05:17:19.576Z,22.00
2018-01-14T05:19:45.792Z,22.73
2018-01-14T05:22:11.972Z,22.73
2018-01-14T05:24:38.348Z,22.70
2018-01-14T05:27:04.798Z,23.50
2018-01-14T05:29:31.024Z,21.97
2018-01-14T05:31:57.316Z,23.13
2018-01-14T05:34:23.544Z,21.17
2018-01-14T05:36:49.729Z,22.10
2018-01-14T05:39:16.602Z,22.10
2018-01-14T05:41:42.826Z,21.10
2018-01-14T05:44:09.149Z,22.23
2018-01-14T05:46:35.355Z,20.40
2018-01-14T05:49:01.575Z,21.70
2018-01-14T05:51:27.820Z,21.83
2018-01-14T05:53:54.234Z,20.60
2018-01-14T05:56:20.456Z,21.87
2018-01-14T05:58:46.667Z,20.90
2018-01-14T06:01:13.217Z,22.53
2018-01-14T06:03:39.426Z,21.17
2018-01-14T06:06:05.666Z,20.37
2018-01-14T06:08:31.860Z,22.17
2018-01-14T06:10:59.080Z,22.23
2018-01-14T06:13:25.291Z,20.40
2018-01-14T06:15:51.612Z,21.50
2018-01-14T06:18:18.792Z,21.43
2018-01-14T06:20:44.988Z,22.10
2018-01-14T06:23:11.614Z,20.80
2018-01-14T06:25:37.834Z,20.50
2018-01-14T06:28:04.114Z,20.77
2018-01-14T06:30:30.464Z,18.87
2018-01-14T06:32:56.817Z,20.77
2018-01-14T06:35:23.078Z,20.70
2018-01-14T06:37:49.330Z,19.87
2018-01-14T06:40:15.529Z,19.80
2018-01-14T06:42:41.965Z,20.03
2018-01-14T06:45:09.191Z,19.23
2018-01-14T06:47:35.385Z,22.07
2018-01-14T06:50:03.711Z,18.67
2018-01-14T06:52:30.063Z,19.90
2018-01-14T06:54:56.248Z,19.37
2018-01-14T06:57:22.475Z,20.23
2018-01-14T06:59:48.777Z,19.50
2018-01-14T07:02:15.400Z,20.47
2018-01-14T07:04:41.661Z,19.93
2018-01-14T07:07:07.933Z,19.67
2018-01-14T07:09:34.104Z,18.90
2018-01-14T07:12:00.272Z,20.10
2018-01-14T07:14:26.440Z,18.30
2018-01-14T07:16:52.604Z,17.40
2018-01-14T07:19:18.795Z,19.73
2018-01-14T07:21:45.689Z,19.50
2018-01-14T07:24:11.952Z,18.33
2018-01-14T07:26:38.143Z,17.60
2018-01-14T07:29:04.376Z,16.90
2018-01-14T07:31:31.626Z,18.00
2018-01-14T07:33:58.621Z,18.23
2018-01-14T07:36:24.853Z,16.80
2018-01-14T07:38:51.054Z,16.57
2018-01-14T07:41:17.375Z,16.80
2018-01-14T07:43:44.351Z,17.00
2018-01-14T07:46:10.529Z,17.90
2018-01-14T07:48:37.031Z,17.00
2018-01-14T07:51:03.224Z,17.27
2018-01-14T07:53:29.400Z,16.53
2018-01-14T07:55:55.706Z,16.60
2018-01-14T07:58:21.923Z,17.00
2018-01-14T08:00:48.108Z,15.47
2018-01-14T08:03:14.537Z,16.67
2018-01-14T08:05:40.764Z,17.30
2018-01-14T08:08:06.941Z,16.40
2018-01-14T08:10:33.328Z,16.90
2018-01-14T08:13:00.269Z,15.40
2018-01-14T08:15:26.460Z,15.20
2018-01-14T08:17:52.776Z,15.63
2018-01-14T08:20:19.715Z,17.13
2018-01-14T08:22:46.651Z,14.57
2018-01-14T08:25:12.824Z,15.13
2018-01-14T08:27:39.969Z,14.50
2018-01-14T08:30:06.142Z,14.93
2018-01-14T08:32:33.060Z,15.20
2018-01-14T08:34:59.212Z,14.83
2018-01-14T08:37:25.561Z,14.20
2018-01-14T08:39:51.774Z,15.03
2018-01-14T08:42:18.712Z,15.30
2018-01-14T08:44:45.109Z,13.63
2018-01-14T08:47:11.360Z,14.03
2018-01-14T08:49:37.524Z,15.17
2018-01-14T08:52:03.818Z,14.30
2018-01-14T08:54:30.040Z,15.30
2018-01-14T08:56:56.231Z,14.23
2018-01-14T08:59:22.577Z,13.53
2018-01-14T09:01:49.803Z,14.00
2018-01-14T09:04:15.939Z,13.83
2018-01-14T09:06:42.165Z,14.60
2018-01-14T09:09:08.347Z,14.37
2018-01-14T09:11:35.239Z,13.93
2018-01-14T09:14:01.456Z,13.67
2018-01-14T09:16:28.491Z,14.37
2018-01-14T09:18:54.672Z,13.60
2018-01-14T09:21:20.867Z,13.60
2018-01-14T09:23:47.242Z,14.50
2018-01-14T09:26:13.485Z,14.03
2018-01-14T09:28:39.663Z,13.90
2018-01-14T09:31:05.986Z,13.80
2018-01-14T09:33:32.184Z,13.50
2018-01-14T09:35:58.368Z,13.40
2018-01-14T09:38:25.390Z,12.70
2018-01-14T09:40:52.663Z,13.87
2018-01-14T09:43:18.788Z,13.30
2018-01-14T09:45:44.979Z,13.80
2018-01-14T09:48:11.413Z,13.23
2018-01-14T09:50:37.612Z,13.80
2018-01-14T09:53:03.793Z,13.30
2018-01-14T09:55:30.127Z,13.10
2018-01-14T09:57:56.400Z,12.20
2018-01-14T10:00:22.748Z,12.00
2018-01-14T10:02:49.379Z,12.77
2018-01-14T10:05:15.844Z,14.43
2018-01-14T10:07:42.208Z,11.73
2018-01-14T10:10:08.507Z,14.00
2018-01-14T10:12:34.683Z,12.47
2018-01-14T10:15:00.951Z,14.60
2018-01-14T10:17:27.161Z,12.33
2018-01-14T10:19:53.388Z,12.83
2018-01-14T10:22:19.551Z,12.80
2018-01-14T10:24:45.791Z,12.37
2018-01-14T10:27:11.984Z,13.27
2018-01-14T10:29:38.217Z,12.40
2018-01-14T10:32:04.425Z,12.00
2018-01-14T10:34:30.588Z,11.60
2018-01-14T10:36:57.522Z,11.73
2018-01-14T10:39:24.462Z,11.60
2018-01-14T10:41:50.936Z,12.50
2018-01-14T10:44:17.088Z,12.57
2018-01-14T10:46:44.059Z,12.50
2018-01-14T10:49:10.490Z,11.93
2018-01-14T10:51:37.599Z,12.60
2018-01-14T10:54:03.792Z,12.13
2018-01-14T10:56:30.696Z,12.47
2018-01-14T10:58:56.907Z,11.70
2018-01-14T11:01:29.140Z,12.00
2018-01-14T11:03:55.412Z,12.77
2018-01-14T11:06:22.535Z,12.33
2018-01-14T11:08:49.959Z,12.40
2018-01-14T11:11:16.116Z,12.10
2018-01-14T11:13:42.331Z,10.80
2018-01-14T11:16:09.288Z,12.30
2018-01-14T11:18:35.507Z,12.00
2018-01-14T11:21:01.685Z,11.90
2018-01-14T11:23:27.889Z,12.20
2018-01-14T11:25:54.063Z,11.77
2018-01-14T11:28:20.271Z,10.63
2018-01-14T11:30:46.531Z,11.73
2018-01-14T11:33:12.762Z,11.30
2018-01-14T11:35:39.727Z,13.50
2018-01-14T11:38:06.623Z,11.30
2018-01-14T11:40:32.928Z,12.90
2018-01-14T11:42:59.820Z,12.23
2018-01-14T11:45:26.025Z,11.83
2018-01-14T11:47:53.068Z,12.60
2018-01-14T11:50:20.155Z,13.00
2018-01-14T11:52:46.312Z,12.13
2018-01-14T11:55:12.496Z,13.70
2018-01-14T11:57:38.738Z,11.43
2018-01-14T12:00:05.695Z,11.97
2018-01-14T12:02:31.894Z,11.63
2018-01-14T12:04:58.217Z,11.83
2018-01-14T12:07:24.392Z,11.93
2018-01-14T12:09:50.557Z,10.90
2018-01-14T12:12:16.997Z,12.23
2018-01-14T12:14:43.151Z,11.03
2018-01-14T12:17:09.348Z,11.80
2018-01-14T12:19:35.681Z,11.90
2018-01-14T12:22:01.847Z,11.70
2018-01-14T12:24:28.027Z,13.20
2018-01-14T12:26:54.444Z,11.63
2018-01-14T12:29:20.668Z,11.60
2018-01-14T12:31:46.808Z,11.40
2018-01-14T12:37:16.800Z,12.50
2018-01-14T12:39:42.975Z,12.10
2018-01-14T12:42:09.133Z,12.00
2018-01-14T12:44:35.541Z,12.27
2018-01-14T12:47:02.447Z,12.40
2018-01-14T12:49:28.635Z,12.10
2018-01-14T12:51:54.850Z,12.70
2018-01-14T12:54:21.027Z,11.87
2018-01-14T12:56:47.190Z,12.60
2018-01-14T12:59:14.359Z,11.63
2018-01-14T13:01:40.854Z,11.83
2018-01-14T13:04:07.053Z,13.00
2018-01-14T13:06:33.239Z,12.37
2018-01-14T13:09:00.392Z,12.20
2018-01-14T13:11:26.575Z,11.30
2018-01-14T13:13:52.743Z,13.00
2018-01-14T13:16:19.099Z,12.63
2018-01-14T13:18:45.260Z,12.20
2018-01-14T13:21:11.423Z,11.40
2018-01-14T13:23:37.705Z,14.03
2018-01-14T13:26:03.907Z,11.00
2018-01-14T13:28:30.055Z,12.30
2018-01-14T13:30:56.489Z,11.53
2018-01-14T13:33:22.643Z,12.27
2018-01-14T13:35:48.803Z,10.60
2018-01-14T13:38:15.188Z,13.00
2018-01-14T13:40:41.328Z,11.87
2018-01-14T13:43:07.499Z,11.67
2018-01-14T13:45:34.003Z,12.00
2018-01-14T13:48:00.181Z,12.20
2018-01-14T13:50:26.349Z,10.43
2018-01-14T13:52:52.552Z,11.07
2018-01-14T13:55:20.741Z,11.83
2018-01-14T13:57:46.903Z,11.97
2018-01-14T14:00:13.054Z,11.10
2018-01-14T14:02:39.956Z,11.77
2018-01-14T14:05:06.159Z,11.50
2018-01-14T14:07:32.371Z,11.90
2018-01-14T14:09:58.522Z,12.53
2018-01-14T14:12:24.757Z,11.40
2018-01-14T14:14:50.952Z,12.00
2018-01-14T14:17:17.144Z,11.83
2018-01-14T14:19:43.295Z,11.67
2018-01-14T14:22:09.466Z,11.00
2018-01-14T14:24:35.761Z,10.10
2018-01-14T14:27:01.924Z,11.67
2018-01-14T14:29:28.103Z,11.83
2018-01-14T14:31:54.413Z,11.87
2018-01-14T14:34:20.604Z,12.27
2018-01-14T14:36:47.515Z,11.37
2018-01-14T14:39:13.703Z,11.03
2018-01-14T14:41:40.981Z,10.47
2018-01-14T14:44:07.164Z,13.20
2018-01-14T14:46:33.362Z,12.03
2018-01-14T14:48:59.665Z,11.10
2018-01-14T14:51:25.848Z,11.23
2018-01-14T14:53:52.045Z,11.90
2018-01-14T14:56:18.504Z,11.70
2018-01-14T14:58:45.707Z,10.43
2018-01-14T15:01:11.866Z,11.67
2018-01-14T15:03:38.240Z,11.50
2018-01-14T15:06:04.808Z,11.37
2018-01-14T15:08:34.597Z,13.00
2018-01-14T15:11:00.776Z,11.63
2018-01-14T15:13:27.679Z,11.30
2018-01-14T15:15:54.596Z,11.60
2018-01-14T15:18:22.022Z,10.60
2018-01-14T15:20:49.528Z,11.50
2018-01-14T15:23:15.918Z,11.40
2018-01-14T15:25:42.091Z,11.30
2018-01-14T15:28:08.620Z,12.83
2018-01-14T15:30:35.010Z,11.17
2018-01-14T15:33:01.178Z,12.37
2018-01-14T15:35:27.623Z,13.60
2018-01-14T15:37:53.777Z,12.77
2018-01-14T15:40:21.015Z,12.80
2018-01-14T15:42:47.171Z,12.93
2018-01-14T15:45:13.533Z,12.50
2018-01-14T15:47:39.697Z,14.70
2018-01-14T15:50:06.043Z,13.10
2018-01-14T15:52:32.372Z,11.60
2018-01-14T15:54:58.575Z,12.50
2018-01-14T15:57:25.742Z,11.50
2018-01-14T15:59:52.892Z,12.60
2018-01-14T16:02:19.204Z,11.57
2018-01-14T16:04:45.404Z,14.07
2018-01-14T16:07:11.589Z,15.03
2018-01-14T16:09:38.792Z,15.20
2018-01-14T16:12:04.964Z,11.57
2018-01-14T16:14:31.125Z,14.50
2018-01-14T16:16:58.171Z,12.57
2018-01-14T16:19:24.322Z,12.13
2018-01-14T16:21:51.226Z,12.50
2018-01-14T16:24:17.423Z,12.73
2018-01-14T16:26:43.840Z,12.57
2018-01-14T16:29:10.023Z,12.90
2018-01-14T16:31:37.367Z,12.13
2018-01-14T16:34:04.304Z,11.63
2018-01-14T16:36:31.233Z,14.13
2018-01-14T16:38:57.420Z,12.67
2018-01-14T16:41:23.604Z,13.03
2018-01-14T16:43:50.131Z,13.27
2018-01-14T16:46:17.037Z,13.20
2018-01-14T16:48:43.222Z,13.80
2018-01-14T16:51:10.131Z,13.57
2018-01-14T16:53:36.405Z,13.70
2018-01-14T16:56:02.595Z,11.87
2018-01-14T16:58:28.791Z,14.07
2018-01-14T17:00:55.050Z,13.47
2018-01-14T17:03:21.991Z,13.10
2018-01-14T17:05:48.901Z,13.60
2018-01-14T17:08:15.323Z,13.50
2018-01-14T17:10:41.648Z,14.67
2018-01-14T17:13:08.551Z,14.23
2018-01-14T17:15:34.749Z,11.80
2018-01-14T17:18:01.200Z,13.80
2018-01-14T17:20:27.389Z,13.13
2018-01-14T17:22:53.549Z,13.07
2018-01-14T17:25:22.584Z,12.37
2018-01-14T17:27:49.750Z,13.73
2018-01-14T17:30:15.965Z,14.13
2018-01-14T17:32:43.195Z,13.43
2018-01-14T17:35:09.851Z,13.83
2018-01-14T17:37:36.732Z,12.97
2018-01-14T17:40:03.010Z,12.60
2018-01-14T17:42:29.182Z,13.70
2018-01-14T17:44:55.381Z,14.80
2018-01-14T17:47:22.841Z,15.00
2018-01-14T17:49:50.050Z,14.37
2018-01-14T17:52:16.245Z,15.47
2018-01-14T17:54:43.230Z,15.03
2018-01-14T17:57:09.460Z,14.97
2018-01-14T17:59:36.739Z,15.17
2018-01-14T18:02:02.990Z,12.93
2018-01-14T18:04:29.468Z,12.57
2018-01-14T18:06:55.663Z,13.10
2018-01-14T18:09:22.040Z,12.37
2018-01-14T18:11:48.396Z,14.07
2018-01-14T18:14:14.937Z,12.30
2018-01-14T18:16:54.455Z,11.70
2018-01-14T18:19:21.719Z,12.20
2018-01-14T18:21:47.964Z,12.93
2018-01-14T18:24:14.157Z,13.10
2018-01-14T18:26:40.325Z,11.57
2018-01-14T18:29:06.616Z,14.47
2018-01-14T18:31:32.766Z,11.63
2018-01-14T18:33:59.085Z,11.70
2018-01-14T18:36:25.612Z,11.23
2018-01-14T18:38:51.808Z,11.37
2018-01-14T18:41:17.956Z,12.73
2018-01-14T18:43:45.120Z,11.77
2018-01-14T18:46:11.335Z,11.60
2018-01-14T18:48:37.512Z,15.57
2018-01-14T18:51:04.432Z,19.00
2018-01-14T18:53:31.269Z,18.90
2018-01-14T18:55:57.444Z,23.53
2018-01-14T18:58:23.649Z,22.60
2018-01-14T19:00:50.133Z,22.83
2018-01-14T19:03:17.232Z,23.30
2018-01-14T19:05:44.121Z,23.33
2018-01-14T19:08:10.291Z,21.20
2018-01-14T19:10:36.520Z,25.33
2018-01-14T19:13:02.816Z,25.70
2018-01-14T19:15:29.774Z,23.73
2018-01-14T19:17:56.302Z,23.70
2018-01-14T19:20:22.536Z,26.60
2018-01-14T19:22:49.450Z,21.20
2018-01-14T19:25:16.491Z,21.93
2018-01-14T19:27:42.778Z,20.27
2018-01-14T19:30:08.952Z,18.20
2018-01-14T19:32:35.189Z,19.37
2018-01-14T19:35:01.386Z,15.97
2018-01-14T19:37:27.613Z,17.23
2018-01-14T19:39:53.767Z,17.70
2018-01-14T19:42:20.075Z,19.30
2018-01-14T19:44:46.278Z,17.30
2018-01-14T19:47:13.208Z,18.30
2018-01-14T19:49:39.757Z,20.73
2018-01-14T19:52:06.033Z,21.10
2018-01-14T19:54:32.997Z,20.20
2018-01-14T19:56:59.985Z,22.80
2018-01-14T19:59:26.496Z,18.00
2018-01-14T20:01:52.686Z,21.73
2018-01-14T20:04:18.913Z,22.70
2018-01-14T20:06:45.373Z,21.67
2018-01-14T20:09:11.650Z,19.17
2018-01-14T20:11:37.841Z,20.90
2018-01-14T20:14:04.136Z,24.40
2018-01-14T20:16:30.303Z,26.50
2018-01-14T20:18:56.500Z,21.47
2018-01-14T20:21:22.833Z,18.17
2018-01-14T20:23:49.040Z,16.30
2018-01-14T20:26:15.202Z,15.40
2018-01-14T20:28:42.135Z,15.60
2018-01-14T20:31:08.303Z,15.10
2018-01-14T20:33:34.528Z,13.50
2018-01-14T20:36:01.069Z,13.37
2018-01-14T20:38:27.271Z,13.50
2018-01-14T20:40:53.470Z,13.97
2018-01-14T20:43:19.630Z,14.13
2018-01-14T20:45:46.037Z,14.60
2018-01-14T20:48:12.990Z,14.60
2018-01-14T20:50:39.169Z,23.80
2018-01-14T20:53:05.488Z,77.13
2018-01-14T20:55:31.717Z,16.33
2018-01-14T20:57:57.941Z,15.23
2018-01-14T21:00:25.124Z,14.50
2018-01-14T21:02:52.762Z,14.40
2018-01-14T21:05:18.978Z,15.10
2018-01-14T21:07:45.172Z,13.80
2018-01-14T21:10:12.548Z,15.03
2018-01-14T21:12:38.736Z,14.23
2018-01-14T21:15:05.299Z,14.63
2018-01-14T21:17:32.220Z,15.00
2018-01-14T21:19:58.650Z,15.77
2018-01-14T21:22:24.793Z,15.70
2018-01-14T21:24:51.006Z,14.83
2018-01-14T21:27:17.464Z,16.73
2018-01-14T21:29:43.652Z,14.70
2018-01-14T21:32:09.919Z,15.80
2018-01-14T21:34:36.314Z,14.63
2018-01-14T21:37:02.597Z,14.80
2018-01-14T21:39:28.800Z,16.10
2018-01-14T21:41:55.195Z,15.50
2018-01-14T21:44:21.508Z,15.60
2018-01-14T21:46:48.541Z,14.70
2018-01-14T21:49:15.761Z,15.73
2018-01-14T21:51:42.121Z,15.27
2018-01-14T21:54:08.359Z,15.20
2018-01-14T21:56:34.593Z,18.30
2018-01-14T21:59:00.853Z,16.87
2018-01-14T22:01:27.102Z,17.37
2018-01-14T22:03:53.285Z,16.20
2018-01-14T22:06:20.976Z,19.10
2018-01-14T22:08:47.517Z,23.30
2018-01-14T22:11:14.440Z,22.37
2018-01-14T22:13:40.647Z,18.93
2018-01-14T22:16:07.071Z,18.23
2018-01-14T22:18:33.319Z,18.90
2018-01-14T22:20:59.472Z,17.13
2018-01-14T22:23:25.919Z,16.87
2018-01-14T22:25:52.168Z,16.00
2018-01-14T22:28:18.439Z,16.87
2018-01-14T22:30:44.880Z,17.47
2018-01-14T22:33:11.104Z,17.00
2018-01-14T22:35:37.354Z,16.77
2018-01-14T22:38:04.440Z,16.13
2018-01-14T22:40:31.570Z,16.23
2018-01-14T22:42:57.793Z,15.00
2018-01-14T22:45:24.032Z,16.57
2018-01-14T22:47:50.299Z,16.13
2018-01-14T22:50:16.495Z,15.40
2018-01-14T22:52:42.690Z,15.27
2018-01-14T22:55:09.035Z,15.57
2018-01-14T22:57:35.244Z,15.20
2018-01-14T23:00:01.467Z,16.73
2018-01-14T23:02:27.740Z,15.20
2018-01-14T23:04:53.934Z,15.47
2018-01-14T23:07:20.867Z,15.23
2018-01-14T23:09:48.079Z,14.20
2018-01-14T23:12:14.338Z,17.93
2018-01-14T23:14:40.619Z,15.50
2018-01-14T23:17:06.795Z,16.37
2018-01-14T23:19:45.227Z,15.47
2018-01-14T23:22:11.423Z,16.50
2018-01-14T23:24:37.629Z,15.80
2018-01-14T23:27:03.820Z,17.15
2018-01-14T23:29:29.990Z,15.47
2018-01-14T23:31:57.706Z,16.47
2018-01-14T23:34:23.913Z,15.37
2018-01-14T23:36:50.080Z,15.70
2018-01-14T23:39:16.307Z,16.17
2018-01-14T23:41:42.722Z,14.70
2018-01-14T23:44:09.446Z,15.63
2018-01-14T23:46:35.667Z,14.67
2018-01-14T23:49:03.632Z,15.00
2018-01-14T23:51:29.920Z,15.47
2018-01-14T23:53:57.336Z,15.47
2018-01-14T23:56:23.580Z,15.07
2018-01-14T23:58:49.794Z,16.80
